sensor_id;sensor_type;location;lat;lon;timestamp;P1;durP1;ratioP1;P2;durP2;ratioP2
75320;SDS011;68337;52.196;5.660;2023-04-25T00:01:47;17.67;;;4.63;;
75320;SDS011;68337;52.196;5.660;2023-04-25T00:04:13;10.18;;;3.83;;
75320;SDS011;68337;52.196;5.660;2023-04-25T00:06:39;13.68;;;4.22;;
75320;SDS011;68337;52.196;5.660;2023-04-25T00:09:05;9.95;;;3.85;;
75320;SDS011;68337;52.196;5.660;2023-04-25T00:11:35;12.70;;;3.70;;
75320;SDS011;68337;52.196;5.660;2023-04-25T00:14:02;9.57;;;3.45;;
75320;SDS011;68337;52.196;5.660;2023-04-25T00:16:28;7.85;;;3.40;;
75320;SDS011;68337;52.196;5.660;2023-04-25T00:18:55;9.63;;;3.80;;
75320;SDS011;68337;52.196;5.660;2023-04-25T00:21:21;10.73;;;3.55;;
75320;SDS011;68337;52.196;5.660;2023-04-25T00:23:49;10.95;;;3.00;;
75320;SDS011;68337;52.196;5.660;2023-04-25T00:26:15;11.55;;;3.30;;
75320;SDS011;68337;52.196;5.660;2023-04-25T00:28:40;8.95;;;3.78;;
75320;SDS011;68337;52.196;5.660;2023-04-25T00:31:06;4.40;;;3.05;;
75320;SDS011;68337;52.196;5.660;2023-04-25T00:33:32;10.13;;;3.85;;
75320;SDS011;68337;52.196;5.660;2023-04-25T00:35:58;4.97;;;3.13;;
75320;SDS011;68337;52.196;5.660;2023-04-25T00:38:23;6.70;;;3.40;;
75320;SDS011;68337;52.196;5.660;2023-04-25T00:40:49;8.63;;;3.92;;
75320;SDS011;68337;52.196;5.660;2023-04-25T00:43:15;10.63;;;3.95;;
75320;SDS011;68337;52.196;5.660;2023-04-25T00:45:40;10.00;;;3.88;;
75320;SDS011;68337;52.196;5.660;2023-04-25T00:48:07;12.70;;;3.67;;
75320;SDS011;68337;52.196;5.660;2023-04-25T00:50:34;11.20;;;4.30;;
75320;SDS011;68337;52.196;5.660;2023-04-25T00:53:01;9.07;;;4.00;;
75320;SDS011;68337;52.196;5.660;2023-04-25T00:55:28;17.83;;;3.78;;
75320;SDS011;68337;52.196;5.660;2023-04-25T00:57:56;12.15;;;4.55;;
75320;SDS011;68337;52.196;5.660;2023-04-25T01:00:22;12.82;;;4.20;;
75320;SDS011;68337;52.196;5.660;2023-04-25T01:02:48;15.55;;;4.47;;
75320;SDS011;68337;52.196;5.660;2023-04-25T01:05:15;18.55;;;5.15;;
75320;SDS011;68337;52.196;5.660;2023-04-25T01:07:41;13.50;;;4.88;;
75320;SDS011;68337;52.196;5.660;2023-04-25T01:10:07;11.15;;;4.88;;
75320;SDS011;68337;52.196;5.660;2023-04-25T01:12:33;11.07;;;4.15;;
75320;SDS011;68337;52.196;5.660;2023-04-25T01:14:59;13.75;;;5.07;;
75320;SDS011;68337;52.196;5.660;2023-04-25T01:17:24;19.75;;;4.72;;
75320;SDS011;68337;52.196;5.660;2023-04-25T01:19:50;10.38;;;3.80;;
75320;SDS011;68337;52.196;5.660;2023-04-25T01:22:16;11.98;;;3.75;;
75320;SDS011;68337;52.196;5.660;2023-04-25T01:24:42;11.15;;;3.67;;
75320;SDS011;68337;52.196;5.660;2023-04-25T01:27:09;10.02;;;3.85;;
75320;SDS011;68337;52.196;5.660;2023-04-25T01:29:35;11.65;;;4.10;;
75320;SDS011;68337;52.196;5.660;2023-04-25T01:32:01;12.95;;;3.92;;
75320;SDS011;68337;52.196;5.660;2023-04-25T01:34:28;12.65;;;4.43;;
75320;SDS011;68337;52.196;5.660;2023-04-25T01:36:54;10.25;;;3.70;;
75320;SDS011;68337;52.196;5.660;2023-04-25T01:39:20;11.88;;;4.50;;
75320;SDS011;68337;52.196;5.660;2023-04-25T01:41:46;13.95;;;4.05;;
75320;SDS011;68337;52.196;5.660;2023-04-25T01:44:13;9.80;;;4.13;;
75320;SDS011;68337;52.196;5.660;2023-04-25T01:46:39;7.05;;;3.72;;
75320;SDS011;68337;52.196;5.660;2023-04-25T01:49:05;13.43;;;3.92;;
75320;SDS011;68337;52.196;5.660;2023-04-25T01:51:31;9.57;;;3.70;;
75320;SDS011;68337;52.196;5.660;2023-04-25T01:53:57;6.38;;;3.25;;
75320;SDS011;68337;52.196;5.660;2023-04-25T01:56:23;8.02;;;3.85;;
75320;SDS011;68337;52.196;5.660;2023-04-25T01:58:50;9.98;;;3.78;;
75320;SDS011;68337;52.196;5.660;2023-04-25T02:01:16;10.18;;;4.13;;
75320;SDS011;68337;52.196;5.660;2023-04-25T02:03:42;4.32;;;3.38;;
75320;SDS011;68337;52.196;5.660;2023-04-25T02:06:08;15.38;;;4.07;;
75320;SDS011;68337;52.196;5.660;2023-04-25T02:08:33;8.85;;;3.40;;
75320;SDS011;68337;52.196;5.660;2023-04-25T02:10:59;11.07;;;3.95;;
75320;SDS011;68337;52.196;5.660;2023-04-25T02:13:25;5.03;;;3.20;;
75320;SDS011;68337;52.196;5.660;2023-04-25T02:15:51;6.43;;;3.40;;
75320;SDS011;68337;52.196;5.660;2023-04-25T02:18:16;9.13;;;4.03;;
75320;SDS011;68337;52.196;5.660;2023-04-25T02:20:42;6.72;;;3.50;;
75320;SDS011;68337;52.196;5.660;2023-04-25T02:23:08;8.27;;;3.80;;
75320;SDS011;68337;52.196;5.660;2023-04-25T02:25:34;7.10;;;3.25;;
75320;SDS011;68337;52.196;5.660;2023-04-25T02:28:00;8.05;;;4.00;;
75320;SDS011;68337;52.196;5.660;2023-04-25T02:30:25;9.57;;;3.45;;
75320;SDS011;68337;52.196;5.660;2023-04-25T02:32:51;9.20;;;3.58;;
75320;SDS011;68337;52.196;5.660;2023-04-25T02:35:17;8.57;;;3.28;;
75320;SDS011;68337;52.196;5.660;2023-04-25T02:37:43;7.50;;;3.63;;
75320;SDS011;68337;52.196;5.660;2023-04-25T02:40:09;6.20;;;3.90;;
75320;SDS011;68337;52.196;5.660;2023-04-25T02:42:35;5.32;;;3.30;;
75320;SDS011;68337;52.196;5.660;2023-04-25T02:45:01;7.53;;;3.70;;
75320;SDS011;68337;52.196;5.660;2023-04-25T02:47:27;10.13;;;3.33;;
75320;SDS011;68337;52.196;5.660;2023-04-25T02:49:53;7.57;;;4.03;;
75320;SDS011;68337;52.196;5.660;2023-04-25T02:52:18;5.15;;;3.38;;
75320;SDS011;68337;52.196;5.660;2023-04-25T02:54:44;6.05;;;3.53;;
75320;SDS011;68337;52.196;5.660;2023-04-25T02:57:10;8.98;;;3.97;;
75320;SDS011;68337;52.196;5.660;2023-04-25T02:59:35;7.63;;;3.67;;
75320;SDS011;68337;52.196;5.660;2023-04-25T03:02:01;7.07;;;3.40;;
75320;SDS011;68337;52.196;5.660;2023-04-25T03:04:27;5.95;;;3.50;;
75320;SDS011;68337;52.196;5.660;2023-04-25T03:06:53;8.68;;;3.60;;
75320;SDS011;68337;52.196;5.660;2023-04-25T03:09:18;8.00;;;3.72;;
75320;SDS011;68337;52.196;5.660;2023-04-25T03:11:44;5.80;;;3.20;;
75320;SDS011;68337;52.196;5.660;2023-04-25T03:14:11;5.07;;;3.75;;
75320;SDS011;68337;52.196;5.660;2023-04-25T03:16:37;5.80;;;4.20;;
75320;SDS011;68337;52.196;5.660;2023-04-25T03:19:03;8.55;;;3.72;;
75320;SDS011;68337;52.196;5.660;2023-04-25T03:21:30;11.80;;;4.25;;
75320;SDS011;68337;52.196;5.660;2023-04-25T03:23:59;9.27;;;3.97;;
75320;SDS011;68337;52.196;5.660;2023-04-25T03:26:26;5.15;;;3.50;;
75320;SDS011;68337;52.196;5.660;2023-04-25T03:28:51;14.02;;;4.38;;
75320;SDS011;68337;52.196;5.660;2023-04-25T03:31:17;7.35;;;3.75;;
75320;SDS011;68337;52.196;5.660;2023-04-25T03:33:43;6.90;;;3.90;;
75320;SDS011;68337;52.196;5.660;2023-04-25T03:36:08;7.55;;;3.78;;
75320;SDS011;68337;52.196;5.660;2023-04-25T03:38:34;9.40;;;3.67;;
75320;SDS011;68337;52.196;5.660;2023-04-25T03:41:00;7.93;;;4.25;;
75320;SDS011;68337;52.196;5.660;2023-04-25T03:43:26;7.30;;;3.42;;
75320;SDS011;68337;52.196;5.660;2023-04-25T03:45:52;7.60;;;4.40;;
75320;SDS011;68337;52.196;5.660;2023-04-25T03:48:18;6.88;;;3.90;;
75320;SDS011;68337;52.196;5.660;2023-04-25T03:50:46;10.75;;;3.33;;
75320;SDS011;68337;52.196;5.660;2023-04-25T03:53:12;10.82;;;3.85;;
75320;SDS011;68337;52.196;5.660;2023-04-25T03:55:38;6.88;;;3.42;;
75320;SDS011;68337;52.196;5.660;2023-04-25T03:58:03;10.57;;;3.60;;
75320;SDS011;68337;52.196;5.660;2023-04-25T04:00:30;8.05;;;3.88;;
75320;SDS011;68337;52.196;5.660;2023-04-25T04:02:55;8.15;;;4.20;;
75320;SDS011;68337;52.196;5.660;2023-04-25T04:05:21;7.68;;;3.42;;
75320;SDS011;68337;52.196;5.660;2023-04-25T04:07:47;10.43;;;3.85;;
75320;SDS011;68337;52.196;5.660;2023-04-25T04:10:13;13.30;;;4.65;;
75320;SDS011;68337;52.196;5.660;2023-04-25T04:12:38;13.10;;;5.10;;
75320;SDS011;68337;52.196;5.660;2023-04-25T04:15:04;17.77;;;4.60;;
75320;SDS011;68337;52.196;5.660;2023-04-25T04:17:31;13.43;;;5.00;;
75320;SDS011;68337;52.196;5.660;2023-04-25T04:19:57;12.05;;;4.78;;
75320;SDS011;68337;52.196;5.660;2023-04-25T04:22:24;15.05;;;4.75;;
75320;SDS011;68337;52.196;5.660;2023-04-25T04:24:49;7.70;;;4.90;;
75320;SDS011;68337;52.196;5.660;2023-04-25T04:27:16;12.32;;;4.57;;
75320;SDS011;68337;52.196;5.660;2023-04-25T04:29:43;14.05;;;4.63;;
75320;SDS011;68337;52.196;5.660;2023-04-25T04:32:09;11.27;;;5.18;;
75320;SDS011;68337;52.196;5.660;2023-04-25T04:34:34;12.95;;;5.35;;
75320;SDS011;68337;52.196;5.660;2023-04-25T04:37:00;15.98;;;5.18;;
75320;SDS011;68337;52.196;5.660;2023-04-25T04:39:26;13.57;;;5.15;;
75320;SDS011;68337;52.196;5.660;2023-04-25T04:41:52;10.43;;;5.05;;
75320;SDS011;68337;52.196;5.660;2023-04-25T04:44:18;8.65;;;5.20;;
75320;SDS011;68337;52.196;5.660;2023-04-25T04:46:44;13.40;;;5.30;;
75320;SDS011;68337;52.196;5.660;2023-04-25T04:49:11;18.23;;;5.45;;
75320;SDS011;68337;52.196;5.660;2023-04-25T04:51:38;16.17;;;4.97;;
75320;SDS011;68337;52.196;5.660;2023-04-25T04:54:06;14.45;;;4.90;;
75320;SDS011;68337;52.196;5.660;2023-04-25T04:56:31;11.45;;;5.75;;
75320;SDS011;68337;52.196;5.660;2023-04-25T04:58:58;12.00;;;5.20;;
75320;SDS011;68337;52.196;5.660;2023-04-25T05:01:24;11.65;;;4.63;;
75320;SDS011;68337;52.196;5.660;2023-04-25T05:03:51;14.70;;;5.18;;
75320;SDS011;68337;52.196;5.660;2023-04-25T05:06:18;9.07;;;5.03;;
75320;SDS011;68337;52.196;5.660;2023-04-25T05:08:44;11.80;;;5.40;;
75320;SDS011;68337;52.196;5.660;2023-04-25T05:11:10;13.70;;;5.50;;
75320;SDS011;68337;52.196;5.660;2023-04-25T05:13:36;10.73;;;5.13;;
75320;SDS011;68337;52.196;5.660;2023-04-25T05:16:02;11.65;;;5.60;;
75320;SDS011;68337;52.196;5.660;2023-04-25T05:18:28;12.32;;;5.50;;
75320;SDS011;68337;52.196;5.660;2023-04-25T05:20:53;11.00;;;4.70;;
75320;SDS011;68337;52.196;5.660;2023-04-25T05:23:19;11.13;;;4.45;;
75320;SDS011;68337;52.196;5.660;2023-04-25T05:25:44;14.30;;;5.13;;
75320;SDS011;68337;52.196;5.660;2023-04-25T05:28:12;16.33;;;5.30;;
75320;SDS011;68337;52.196;5.660;2023-04-25T05:30:38;13.23;;;5.25;;
75320;SDS011;68337;52.196;5.660;2023-04-25T05:33:03;8.88;;;5.30;;
75320;SDS011;68337;52.196;5.660;2023-04-25T05:35:29;9.02;;;5.05;;
75320;SDS011;68337;52.196;5.660;2023-04-25T05:37:55;18.42;;;5.55;;
75320;SDS011;68337;52.196;5.660;2023-04-25T05:40:21;11.40;;;4.88;;
75320;SDS011;68337;52.196;5.660;2023-04-25T05:42:46;9.15;;;5.38;;
75320;SDS011;68337;52.196;5.660;2023-04-25T05:45:12;10.88;;;5.18;;
75320;SDS011;68337;52.196;5.660;2023-04-25T05:47:38;8.43;;;4.75;;
75320;SDS011;68337;52.196;5.660;2023-04-25T05:50:04;14.70;;;5.35;;
75320;SDS011;68337;52.196;5.660;2023-04-25T05:52:30;12.88;;;4.55;;
75320;SDS011;68337;52.196;5.660;2023-04-25T05:54:55;13.70;;;5.45;;
75320;SDS011;68337;52.196;5.660;2023-04-25T05:59:47;8.70;;;5.15;;
75320;SDS011;68337;52.196;5.660;2023-04-25T06:02:13;10.68;;;5.55;;
75320;SDS011;68337;52.196;5.660;2023-04-25T06:04:39;12.95;;;4.65;;
75320;SDS011;68337;52.196;5.660;2023-04-25T06:07:05;7.07;;;5.00;;
75320;SDS011;68337;52.196;5.660;2023-04-25T06:09:30;18.80;;;5.38;;
75320;SDS011;68337;52.196;5.660;2023-04-25T06:11:56;12.07;;;4.80;;
75320;SDS011;68337;52.196;5.660;2023-04-25T06:14:22;11.70;;;4.85;;
75320;SDS011;68337;52.196;5.660;2023-04-25T06:16:47;7.95;;;4.93;;
75320;SDS011;68337;52.196;5.660;2023-04-25T06:19:13;9.55;;;4.80;;
75320;SDS011;68337;52.196;5.660;2023-04-25T06:21:38;10.43;;;4.32;;
75320;SDS011;68337;52.196;5.660;2023-04-25T06:24:04;11.88;;;4.45;;
75320;SDS011;68337;52.196;5.660;2023-04-25T06:26:30;21.88;;;5.00;;
75320;SDS011;68337;52.196;5.660;2023-04-25T06:28:56;11.73;;;4.30;;
75320;SDS011;68337;52.196;5.660;2023-04-25T06:31:22;12.43;;;4.45;;
75320;SDS011;68337;52.196;5.660;2023-04-25T06:33:47;9.65;;;4.07;;
75320;SDS011;68337;52.196;5.660;2023-04-25T06:36:13;7.65;;;3.45;;
75320;SDS011;68337;52.196;5.660;2023-04-25T06:38:39;9.35;;;3.47;;
75320;SDS011;68337;52.196;5.660;2023-04-25T06:41:05;12.73;;;3.50;;
75320;SDS011;68337;52.196;5.660;2023-04-25T06:43:31;20.38;;;4.15;;
75320;SDS011;68337;52.196;5.660;2023-04-25T06:45:58;14.88;;;3.85;;
75320;SDS011;68337;52.196;5.660;2023-04-25T06:48:26;22.95;;;4.68;;
75320;SDS011;68337;52.196;5.660;2023-04-25T06:50:52;7.65;;;2.30;;
75320;SDS011;68337;52.196;5.660;2023-04-25T06:53:17;11.38;;;3.30;;
75320;SDS011;68337;52.196;5.660;2023-04-25T06:55:43;14.98;;;2.90;;
75320;SDS011;68337;52.196;5.660;2023-04-25T06:58:09;11.70;;;2.50;;
75320;SDS011;68337;52.196;5.660;2023-04-25T07:00:35;8.82;;;1.85;;
75320;SDS011;68337;52.196;5.660;2023-04-25T07:03:01;10.55;;;2.55;;
75320;SDS011;68337;52.196;5.660;2023-04-25T07:05:27;7.95;;;1.95;;
75320;SDS011;68337;52.196;5.660;2023-04-25T07:07:52;6.93;;;1.95;;
75320;SDS011;68337;52.196;5.660;2023-04-25T07:10:18;6.40;;;1.77;;
75320;SDS011;68337;52.196;5.660;2023-04-25T07:12:44;15.50;;;2.13;;
75320;SDS011;68337;52.196;5.660;2023-04-25T07:15:09;5.90;;;1.50;;
75320;SDS011;68337;52.196;5.660;2023-04-25T07:17:36;10.65;;;2.40;;
75320;SDS011;68337;52.196;5.660;2023-04-25T07:20:02;7.88;;;1.95;;
75320;SDS011;68337;52.196;5.660;2023-04-25T07:22:29;9.80;;;1.92;;
75320;SDS011;68337;52.196;5.660;2023-04-25T07:24:54;11.35;;;1.65;;
75320;SDS011;68337;52.196;5.660;2023-04-25T07:27:20;7.55;;;1.73;;
75320;SDS011;68337;52.196;5.660;2023-04-25T07:29:46;10.23;;;2.10;;
75320;SDS011;68337;52.196;5.660;2023-04-25T07:32:12;7.30;;;1.77;;
75320;SDS011;68337;52.196;5.660;2023-04-25T07:34:38;9.75;;;2.22;;
75320;SDS011;68337;52.196;5.660;2023-04-25T07:37:04;8.45;;;1.77;;
75320;SDS011;68337;52.196;5.660;2023-04-25T07:39:30;8.50;;;1.80;;
75320;SDS011;68337;52.196;5.660;2023-04-25T07:41:56;8.57;;;2.08;;
75320;SDS011;68337;52.196;5.660;2023-04-25T07:44:23;14.68;;;1.80;;
75320;SDS011;68337;52.196;5.660;2023-04-25T07:46:50;9.20;;;1.80;;
75320;SDS011;68337;52.196;5.660;2023-04-25T07:49:16;4.07;;;1.48;;
75320;SDS011;68337;52.196;5.660;2023-04-25T07:51:41;10.98;;;2.10;;
75320;SDS011;68337;52.196;5.660;2023-04-25T07:54:09;11.00;;;2.20;;
75320;SDS011;68337;52.196;5.660;2023-04-25T07:56:35;9.23;;;1.77;;
75320;SDS011;68337;52.196;5.660;2023-04-25T07:59:00;4.00;;;1.23;;
75320;SDS011;68337;52.196;5.660;2023-04-25T08:01:26;7.13;;;1.60;;
75320;SDS011;68337;52.196;5.660;2023-04-25T08:03:52;7.32;;;1.77;;
75320;SDS011;68337;52.196;5.660;2023-04-25T08:06:18;7.45;;;1.75;;
75320;SDS011;68337;52.196;5.660;2023-04-25T08:08:43;6.97;;;2.00;;
75320;SDS011;68337;52.196;5.660;2023-04-25T08:11:10;8.77;;;2.45;;
75320;SDS011;68337;52.196;5.660;2023-04-25T08:13:36;3.95;;;1.33;;
75320;SDS011;68337;52.196;5.660;2023-04-25T08:16:01;8.68;;;2.42;;
75320;SDS011;68337;52.196;5.660;2023-04-25T08:18:27;12.32;;;1.88;;
75320;SDS011;68337;52.196;5.660;2023-04-25T08:20:53;9.10;;;1.90;;
75320;SDS011;68337;52.196;5.660;2023-04-25T08:23:18;10.85;;;2.22;;
75320;SDS011;68337;52.196;5.660;2023-04-25T08:25:44;14.20;;;2.35;;
75320;SDS011;68337;52.196;5.660;2023-04-25T08:28:10;12.85;;;2.70;;
75320;SDS011;68337;52.196;5.660;2023-04-25T08:30:36;13.80;;;2.35;;
75320;SDS011;68337;52.196;5.660;2023-04-25T08:33:01;5.80;;;1.80;;
75320;SDS011;68337;52.196;5.660;2023-04-25T08:35:27;3.15;;;1.48;;
75320;SDS011;68337;52.196;5.660;2023-04-25T08:37:53;11.20;;;1.77;;
75320;SDS011;68337;52.196;5.660;2023-04-25T08:40:19;8.27;;;1.38;;
75320;SDS011;68337;52.196;5.660;2023-04-25T08:42:53;9.27;;;1.63;;
75320;SDS011;68337;52.196;5.660;2023-04-25T08:45:20;5.32;;;1.10;;
75320;SDS011;68337;52.196;5.660;2023-04-25T08:47:46;8.65;;;1.48;;
75320;SDS011;68337;52.196;5.660;2023-04-25T08:50:13;4.15;;;1.42;;
75320;SDS011;68337;52.196;5.660;2023-04-25T08:52:43;13.45;;;2.05;;
75320;SDS011;68337;52.196;5.660;2023-04-25T08:55:11;3.28;;;1.40;;
75320;SDS011;68337;52.196;5.660;2023-04-25T08:57:38;3.78;;;1.38;;
75320;SDS011;68337;52.196;5.660;2023-04-25T09:00:08;8.10;;;1.55;;
75320;SDS011;68337;52.196;5.660;2023-04-25T09:02:35;7.00;;;1.98;;
75320;SDS011;68337;52.196;5.660;2023-04-25T09:05:02;5.13;;;1.60;;
75320;SDS011;68337;52.196;5.660;2023-04-25T09:07:29;7.38;;;1.50;;
75320;SDS011;68337;52.196;5.660;2023-04-25T09:09:55;5.25;;;1.75;;
75320;SDS011;68337;52.196;5.660;2023-04-25T09:12:21;3.88;;;1.45;;
75320;SDS011;68337;52.196;5.660;2023-04-25T09:15:06;7.05;;;1.60;;
75320;SDS011;68337;52.196;5.660;2023-04-25T09:17:34;9.18;;;1.63;;
75320;SDS011;68337;52.196;5.660;2023-04-25T09:20:12;6.63;;;1.25;;
75320;SDS011;68337;52.196;5.660;2023-04-25T09:22:38;3.17;;;1.08;;
75320;SDS011;68337;52.196;5.660;2023-04-25T09:25:07;11.55;;;1.55;;
75320;SDS011;68337;52.196;5.660;2023-04-25T09:27:49;6.47;;;1.38;;
75320;SDS011;68337;52.196;5.660;2023-04-25T09:30:17;6.55;;;1.35;;
75320;SDS011;68337;52.196;5.660;2023-04-25T09:32:43;4.97;;;1.20;;
75320;SDS011;68337;52.196;5.660;2023-04-25T09:35:09;7.22;;;1.10;;
75320;SDS011;68337;52.196;5.660;2023-04-25T09:37:35;5.22;;;1.45;;
75320;SDS011;68337;52.196;5.660;2023-04-25T09:40:03;1.98;;;1.10;;
75320;SDS011;68337;52.196;5.660;2023-04-25T09:42:31;3.53;;;1.00;;
75320;SDS011;68337;52.196;5.660;2023-04-25T09:44:59;5.15;;;1.25;;
75320;SDS011;68337;52.196;5.660;2023-04-25T09:47:27;2.63;;;1.02;;
75320;SDS011;68337;52.196;5.660;2023-04-25T09:49:53;4.40;;;1.33;;
75320;SDS011;68337;52.196;5.660;2023-04-25T09:52:24;9.15;;;1.80;;
75320;SDS011;68337;52.196;5.660;2023-04-25T09:54:50;9.88;;;1.70;;
75320;SDS011;68337;52.196;5.660;2023-04-25T09:57:18;5.05;;;1.40;;
75320;SDS011;68337;52.196;5.660;2023-04-25T09:59:48;4.15;;;1.40;;
75320;SDS011;68337;52.196;5.660;2023-04-25T10:02:19;5.22;;;1.33;;
75320;SDS011;68337;52.196;5.660;2023-04-25T10:04:47;10.70;;;2.03;;
75320;SDS011;68337;52.196;5.660;2023-04-25T10:07:18;6.57;;;1.52;;
75320;SDS011;68337;52.196;5.660;2023-04-25T10:09:47;5.57;;;1.88;;
75320;SDS011;68337;52.196;5.660;2023-04-25T10:12:17;11.02;;;1.90;;
75320;SDS011;68337;52.196;5.660;2023-04-25T10:14:43;3.22;;;1.27;;
75320;SDS011;68337;52.196;5.660;2023-04-25T10:17:10;1.38;;;0.70;;
75320;SDS011;68337;52.196;5.660;2023-04-25T10:19:36;5.70;;;1.00;;
75320;SDS011;68337;52.196;5.660;2023-04-25T10:24:30;7.30;;;1.25;;
75320;SDS011;68337;52.196;5.660;2023-04-25T10:26:57;4.60;;;1.00;;
75320;SDS011;68337;52.196;5.660;2023-04-25T10:29:26;1.92;;;1.60;;
75320;SDS011;68337;52.196;5.660;2023-04-25T10:31:52;2.90;;;1.10;;
75320;SDS011;68337;52.196;5.660;2023-04-25T10:34:18;5.03;;;1.65;;
75320;SDS011;68337;52.196;5.660;2023-04-25T10:36:49;5.53;;;1.73;;
75320;SDS011;68337;52.196;5.660;2023-04-25T10:39:23;4.20;;;1.50;;
75320;SDS011;68337;52.196;5.660;2023-04-25T10:41:52;7.22;;;1.40;;
75320;SDS011;68337;52.196;5.660;2023-04-25T10:44:21;5.30;;;1.83;;
75320;SDS011;68337;52.196;5.660;2023-04-25T10:46:46;8.38;;;1.63;;
75320;SDS011;68337;52.196;5.660;2023-04-25T10:54:52;5.18;;;0.85;;
75320;SDS011;68337;52.196;5.660;2023-04-25T10:57:53;5.50;;;1.38;;
75320;SDS011;68337;52.196;5.660;2023-04-25T11:00:17;5.40;;;1.48;;
75320;SDS011;68337;52.196;5.660;2023-04-25T11:02:57;5.55;;;1.40;;
75320;SDS011;68337;52.196;5.660;2023-04-25T11:05:31;7.88;;;1.20;;
75320;SDS011;68337;52.196;5.660;2023-04-25T11:07:59;3.00;;;1.00;;
75320;SDS011;68337;52.196;5.660;2023-04-25T11:10:26;5.72;;;1.45;;
75320;SDS011;68337;52.196;5.660;2023-04-25T11:12:52;5.00;;;1.55;;
75320;SDS011;68337;52.196;5.660;2023-04-25T11:15:18;2.38;;;0.93;;
75320;SDS011;68337;52.196;5.660;2023-04-25T11:17:44;3.92;;;1.27;;
75320;SDS011;68337;52.196;5.660;2023-04-25T11:20:11;5.05;;;1.27;;
75320;SDS011;68337;52.196;5.660;2023-04-25T11:22:38;5.82;;;1.50;;
75320;SDS011;68337;52.196;5.660;2023-04-25T11:25:08;3.30;;;1.42;;
75320;SDS011;68337;52.196;5.660;2023-04-25T11:27:37;5.38;;;1.63;;
75320;SDS011;68337;52.196;5.660;2023-04-25T11:30:13;3.67;;;1.45;;
75320;SDS011;68337;52.196;5.660;2023-04-25T11:32:40;7.35;;;1.50;;
75320;SDS011;68337;52.196;5.660;2023-04-25T11:35:07;6.13;;;1.15;;
75320;SDS011;68337;52.196;5.660;2023-04-25T11:37:33;4.10;;;1.05;;
75320;SDS011;68337;52.196;5.660;2023-04-25T11:39:59;5.15;;;1.10;;
75320;SDS011;68337;52.196;5.660;2023-04-25T11:42:25;5.68;;;1.38;;
75320;SDS011;68337;52.196;5.660;2023-04-25T11:44:51;3.97;;;1.40;;
75320;SDS011;68337;52.196;5.660;2023-04-25T11:47:17;5.95;;;1.20;;
75320;SDS011;68337;52.196;5.660;2023-04-25T11:49:43;4.60;;;1.52;;
75320;SDS011;68337;52.196;5.660;2023-04-25T11:52:08;8.05;;;1.35;;
75320;SDS011;68337;52.196;5.660;2023-04-25T11:54:35;11.45;;;2.13;;
75320;SDS011;68337;52.196;5.660;2023-04-25T11:57:02;5.70;;;1.42;;
75320;SDS011;68337;52.196;5.660;2023-04-25T11:59:29;6.82;;;1.50;;
75320;SDS011;68337;52.196;5.660;2023-04-25T12:01:55;3.88;;;1.40;;
75320;SDS011;68337;52.196;5.660;2023-04-25T12:04:23;2.40;;;1.20;;
75320;SDS011;68337;52.196;5.660;2023-04-25T12:06:51;7.53;;;1.60;;
75320;SDS011;68337;52.196;5.660;2023-04-25T12:09:19;3.60;;;1.27;;
75320;SDS011;68337;52.196;5.660;2023-04-25T12:11:56;6.03;;;1.50;;
75320;SDS011;68337;52.196;5.660;2023-04-25T12:14:24;2.80;;;1.40;;
75320;SDS011;68337;52.196;5.660;2023-04-25T12:16:52;3.67;;;0.98;;
75320;SDS011;68337;52.196;5.660;2023-04-25T12:19:21;5.95;;;1.15;;
75320;SDS011;68337;52.196;5.660;2023-04-25T12:21:47;4.15;;;1.00;;
75320;SDS011;68337;52.196;5.660;2023-04-25T12:24:15;3.40;;;1.17;;
75320;SDS011;68337;52.196;5.660;2023-04-25T12:26:55;2.70;;;0.90;;
75320;SDS011;68337;52.196;5.660;2023-04-25T12:29:31;3.70;;;1.00;;
75320;SDS011;68337;52.196;5.660;2023-04-25T12:31:58;3.92;;;1.55;;
75320;SDS011;68337;52.196;5.660;2023-04-25T12:34:24;4.65;;;1.02;;
75320;SDS011;68337;52.196;5.660;2023-04-25T12:36:51;3.25;;;1.25;;
75320;SDS011;68337;52.196;5.660;2023-04-25T12:39:18;3.47;;;1.17;;
75320;SDS011;68337;52.196;5.660;2023-04-25T12:41:46;1.75;;;0.90;;
75320;SDS011;68337;52.196;5.660;2023-04-25T12:44:18;3.47;;;1.02;;
75320;SDS011;68337;52.196;5.660;2023-04-25T12:46:44;4.65;;;1.58;;
75320;SDS011;68337;52.196;5.660;2023-04-25T12:49:10;4.65;;;1.10;;
75320;SDS011;68337;52.196;5.660;2023-04-25T12:51:36;6.35;;;1.48;;
75320;SDS011;68337;52.196;5.660;2023-04-25T12:54:03;3.47;;;1.17;;
75320;SDS011;68337;52.196;5.660;2023-04-25T12:56:29;5.85;;;1.50;;
75320;SDS011;68337;52.196;5.660;2023-04-25T12:58:56;3.78;;;1.23;;
75320;SDS011;68337;52.196;5.660;2023-04-25T13:01:22;2.30;;;1.02;;
75320;SDS011;68337;52.196;5.660;2023-04-25T13:03:48;5.10;;;1.23;;
75320;SDS011;68337;52.196;5.660;2023-04-25T13:06:14;2.90;;;1.30;;
75320;SDS011;68337;52.196;5.660;2023-04-25T13:08:40;5.55;;;1.50;;
75320;SDS011;68337;52.196;5.660;2023-04-25T13:11:07;6.60;;;1.38;;
75320;SDS011;68337;52.196;5.660;2023-04-25T13:13:33;4.15;;;1.02;;
75320;SDS011;68337;52.196;5.660;2023-04-25T13:16:02;7.85;;;1.38;;
75320;SDS011;68337;52.196;5.660;2023-04-25T13:18:29;6.93;;;1.50;;
75320;SDS011;68337;52.196;5.660;2023-04-25T13:20:56;7.60;;;1.20;;
75320;SDS011;68337;52.196;5.660;2023-04-25T13:23:22;3.75;;;1.15;;
75320;SDS011;68337;52.196;5.660;2023-04-25T13:25:50;4.15;;;1.05;;
75320;SDS011;68337;52.196;5.660;2023-04-25T13:28:15;3.75;;;0.90;;
75320;SDS011;68337;52.196;5.660;2023-04-25T13:30:41;6.07;;;1.40;;
75320;SDS011;68337;52.196;5.660;2023-04-25T13:33:08;4.30;;;1.08;;
75320;SDS011;68337;52.196;5.660;2023-04-25T13:35:35;3.22;;;1.30;;
75320;SDS011;68337;52.196;5.660;2023-04-25T13:38:02;3.20;;;1.20;;
75320;SDS011;68337;52.196;5.660;2023-04-25T13:40:28;3.90;;;0.90;;
75320;SDS011;68337;52.196;5.660;2023-04-25T13:42:54;6.13;;;0.90;;
75320;SDS011;68337;52.196;5.660;2023-04-25T13:45:20;5.10;;;1.20;;
75320;SDS011;68337;52.196;5.660;2023-04-25T13:47:46;8.77;;;1.63;;
75320;SDS011;68337;52.196;5.660;2023-04-25T13:50:12;3.90;;;1.50;;
75320;SDS011;68337;52.196;5.660;2023-04-25T13:52:38;6.07;;;1.65;;
75320;SDS011;68337;52.196;5.660;2023-04-25T13:55:05;8.95;;;1.50;;
75320;SDS011;68337;52.196;5.660;2023-04-25T13:57:32;4.13;;;1.52;;
75320;SDS011;68337;52.196;5.660;2023-04-25T13:59:58;2.67;;;1.15;;
75320;SDS011;68337;52.196;5.660;2023-04-25T14:02:24;1.95;;;1.08;;
75320;SDS011;68337;52.196;5.660;2023-04-25T14:04:51;3.47;;;1.17;;
75320;SDS011;68337;52.196;5.660;2023-04-25T14:07:16;7.03;;;1.35;;
75320;SDS011;68337;52.196;5.660;2023-04-25T14:09:46;5.03;;;1.58;;
75320;SDS011;68337;52.196;5.660;2023-04-25T14:12:12;6.00;;;1.52;;
75320;SDS011;68337;52.196;5.660;2023-04-25T14:14:37;4.07;;;1.40;;
75320;SDS011;68337;52.196;5.660;2023-04-25T14:17:03;3.88;;;1.10;;
75320;SDS011;68337;52.196;5.660;2023-04-25T14:19:29;5.07;;;1.38;;
75320;SDS011;68337;52.196;5.660;2023-04-25T14:21:55;6.70;;;1.70;;
75320;SDS011;68337;52.196;5.660;2023-04-25T14:24:21;4.65;;;1.85;;
75320;SDS011;68337;52.196;5.660;2023-04-25T14:26:46;7.88;;;1.92;;
75320;SDS011;68337;52.196;5.660;2023-04-25T14:29:12;7.13;;;1.58;;
75320;SDS011;68337;52.196;5.660;2023-04-25T14:31:38;5.45;;;1.52;;
75320;SDS011;68337;52.196;5.660;2023-04-25T14:34:05;6.78;;;1.70;;
75320;SDS011;68337;52.196;5.660;2023-04-25T14:36:31;8.00;;;1.65;;
75320;SDS011;68337;52.196;5.660;2023-04-25T14:38:58;4.88;;;1.55;;
75320;SDS011;68337;52.196;5.660;2023-04-25T14:41:24;7.80;;;1.75;;
75320;SDS011;68337;52.196;5.660;2023-04-25T14:43:50;5.93;;;1.17;;
75320;SDS011;68337;52.196;5.660;2023-04-25T14:46:18;10.55;;;1.77;;
75320;SDS011;68337;52.196;5.660;2023-04-25T14:48:44;6.47;;;1.73;;
75320;SDS011;68337;52.196;5.660;2023-04-25T14:51:10;8.30;;;1.77;;